Time;durP1;ratioP1;P1;durP2;ratioP2;P2;SDS_P1;SDS_P2;PMS_P1;PMS_P2;Temp;Humidity;BMP_temperature;BMP_pressure;BME280_temperature;BME280_humidity;BME280_pressure;Samples;Min_cycle;Max_cycle;Signal;HPM_P1;HPM_P2
2023/10/26 00:02:19;;;;;;;;;;;10.60;94.90;;;;;;5011963;28;19917;-53
2023/10/26 00:04:46;;;;;;;;;;;10.60;94.90;;;;;;5010799;28;19910;-51
2023/10/26 00:07:14;;;;;;;;;;;10.60;94.90;;;;;;5011877;28;19910;-52
2023/10/26 00:09:40;;;;;;;;;;;10.60;94.90;;;;;;5020937;28;19909;-53
2023/10/26 00:12:06;;;;;;;;;;;10.60;94.90;;;;;;5022664;28;19925;-51
2023/10/26 00:14:33;;;;;;;;;;;10.60;94.90;;;;;;5011884;28;19913;-55
2023/10/26 00:16:59;;;;;;;;;;;10.50;94.80;;;;;;5011298;28;19974;-51
2023/10/26 00:22:28;;;;;;;;;;;10.50;94.90;;;;;;5005905;28;19966;-49
2023/10/26 00:24:55;;;;;;;;;;;10.50;94.90;;;;;;5022026;28;20386;-55
2023/10/26 00:27:23;;;;;;;;;;;10.50;94.90;;;;;;5030936;28;19913;-49
2023/10/26 00:29:48;;;;;;;;;;;10.50;94.80;;;;;;5031087;28;20268;-50
2023/10/26 00:32:14;;;;;;;;;;;10.50;94.90;;;;;;5016107;28;19927;-51
2023/10/26 00:34:41;;;;;;;;;;;10.50;94.90;;;;;;5010022;28;19909;-51
2023/10/26 00:37:06;;;;;;;;;;;10.50;94.90;;;;;;5011523;28;20314;-49
2023/10/26 00:39:34;;;;;;;;;;;10.50;94.90;;;;;;5018804;28;19909;-55
2023/10/26 00:42:00;;;;;;;;;;;10.50;94.80;;;;;;5012959;28;19932;-55
2023/10/26 00:44:28;;;;;;;;;;;10.50;94.90;;;;;;5014808;28;20303;-54
2023/10/26 00:46:54;;;;;;;;;;;10.50;94.90;;;;;;5011556;28;20526;-55
2023/10/26 00:49:21;;;;;;;;;;;10.50;94.90;;;;;;5011163;28;19909;-50
2023/10/26 00:51:53;;;;;;;;;;;10.50;94.90;;;;;;5011901;28;19905;-50
2023/10/26 00:54:20;;;;;;;;;;;10.50;94.80;;;;;;5026058;28;19924;-52
2023/10/26 00:56:47;;;;;;;;;;;10.40;94.90;;;;;;5030163;28;19909;-48
2023/10/26 00:59:15;;;;;;;;;;;10.50;94.80;;;;;;5029012;28;20302;-53
2023/10/26 01:01:42;;;;;;;;;;;10.50;94.90;;;;;;5010604;28;20269;-56
2023/10/26 01:04:09;;;;;;;;;;;10.40;94.80;;;;;;5010771;28;19916;-50
2023/10/26 01:06:34;;;;;;;;;;;10.40;94.80;;;;;;5009813;28;20368;-55
2023/10/26 01:09:01;;;;;;;;;;;10.40;94.80;;;;;;5020428;28;19944;-55
2023/10/26 01:11:26;;;;;;;;;;;10.40;94.80;;;;;;5027948;28;19917;-50
2023/10/26 01:13:53;;;;;;;;;;;10.40;94.80;;;;;;5010280;28;20516;-51
2023/10/26 01:16:20;;;;;;;;;;;10.40;94.80;;;;;;5009481;28;19921;-53
2023/10/26 01:18:47;;;;;;;;;;;10.40;94.70;;;;;;5010048;28;19905;-48
2023/10/26 01:21:14;;;;;;;;;;;10.40;94.70;;;;;;5010279;28;19993;-56
2023/10/26 01:23:39;;;;;;;;;;;10.40;94.70;;;;;;5017616;28;19917;-51
2023/10/26 01:26:05;;;;;;;;;;;10.40;94.80;;;;;;5018536;28;20613;-52
2023/10/26 01:28:32;;;;;;;;;;;10.40;94.80;;;;;;5016702;28;19913;-54
2023/10/26 01:30:59;;;;;;;;;;;10.40;94.80;;;;;;5030789;28;19905;-56
2023/10/26 01:33:24;;;;;;;;;;;10.40;94.80;;;;;;5021130;28;19952;-53
2023/10/26 01:35:51;;;;;;;;;;;10.40;94.80;;;;;;5010765;28;20365;-54
2023/10/26 01:38:17;;;;;;;;;;;10.40;94.70;;;;;;5012483;28;19917;-55
2023/10/26 01:40:43;;;;;;;;;;;10.40;94.80;;;;;;5018974;28;19909;-54
2023/10/26 01:43:10;;;;;;;;;;;10.40;94.70;;;;;;5010526;28;19917;-52
2023/10/26 01:45:37;;;;;;;;;;;10.40;94.70;;;;;;5010646;28;19905;-51
2023/10/26 01:48:05;;;;;;;;;;;10.40;94.60;;;;;;5010308;28;20443;-52
2023/10/26 01:50:32;;;;;;;;;;;10.30;94.60;;;;;;5011030;28;19916;-52
2023/10/26 01:52:59;;;;;;;;;;;10.30;94.70;;;;;;5011759;28;19920;-49
2023/10/26 01:55:26;;;;;;;;;;;10.30;94.60;;;;;;5030226;28;20357;-52
2023/10/26 01:57:52;;;;;;;;;;;10.30;94.60;;;;;;5029068;28;19913;-56
2023/10/26 02:00:20;;;;;;;;;;;10.30;94.60;;;;;;5027203;28;19966;-50
2023/10/26 02:02:49;;;;;;;;;;;10.30;94.60;;;;;;5009279;28;19910;-55
2023/10/26 02:05:18;;;;;;;;;;;10.30;94.70;;;;;;5009864;28;19906;-56
2023/10/26 02:07:44;;;;;;;;;;;10.30;94.60;;;;;;4992974;28;19931;-55
2023/10/26 02:10:14;;;;;;;;;;;10.20;94.60;;;;;;5026864;28;19938;-52
2023/10/26 02:12:40;;;;;;;;;;;10.20;94.60;;;;;;5015785;28;20331;-52
2023/10/26 02:15:07;;;;;;;;;;;10.20;94.50;;;;;;5010146;28;19909;-51
2023/10/26 02:17:34;;;;;;;;;;;10.20;94.50;;;;;;5009656;28;19909;-56
2023/10/26 02:19:59;;;;;;;;;;;10.20;94.50;;;;;;5010235;28;20350;-54
2023/10/26 02:22:25;;;;;;;;;;;10.20;94.50;;;;;;5010237;28;19909;-50
2023/10/26 02:24:51;;;;;;;;;;;10.20;94.50;;;;;;5020749;28;19935;-53
2023/10/26 02:27:17;;;;;;;;;;;10.20;94.50;;;;;;5013101;28;19909;-52
2023/10/26 02:29:44;;;;;;;;;;;10.20;94.40;;;;;;5033762;28;20223;-52
2023/10/26 02:32:10;;;;;;;;;;;10.20;94.50;;;;;;5031770;28;20012;-52
2023/10/26 02:34:36;;;;;;;;;;;10.20;94.40;;;;;;5033430;28;19961;-52
2023/10/26 02:37:02;;;;;;;;;;;10.10;94.40;;;;;;5013574;28;20003;-53
2023/10/26 02:39:28;;;;;;;;;;;10.10;94.40;;;;;;5019799;28;20269;-51
2023/10/26 02:41:55;;;;;;;;;;;10.20;94.40;;;;;;5033068;28;19915;-56
2023/10/26 02:44:20;;;;;;;;;;;10.10;94.30;;;;;;5033347;28;19932;-56
2023/10/26 02:46:49;;;;;;;;;;;10.10;94.30;;;;;;5033078;28;20338;-56
2023/10/26 02:49:15;;;;;;;;;;;10.10;94.20;;;;;;5014841;28;20640;-54
2023/10/26 02:51:40;;;;;;;;;;;10.10;94.30;;;;;;5013245;28;19916;-55
2023/10/26 02:54:07;;;;;;;;;;;10.10;94.30;;;;;;5015667;28;20481;-49
2023/10/26 02:56:34;;;;;;;;;;;10.10;94.30;;;;;;5033030;28;19905;-55
2023/10/26 02:59:02;;;;;;;;;;;10.10;94.30;;;;;;5032973;28;20000;-55
2023/10/26 03:01:32;;;;;;;;;;;10.10;94.40;;;;;;5031267;28;20004;-55
2023/10/26 03:04:02;;;;;;;;;;;10.10;94.30;;;;;;5011014;28;19917;-56
2023/10/26 03:06:28;;;;;;;;;;;10.10;94.30;;;;;;5013052;28;19906;-51
2023/10/26 03:08:55;;;;;;;;;;;10.10;94.30;;;;;;5013075;28;20288;-55
2023/10/26 03:11:22;;;;;;;;;;;10.10;94.30;;;;;;5009399;28;19917;-56
2023/10/26 03:13:49;;;;;;;;;;;10.10;94.30;;;;;;5010926;28;20004;-52
2023/10/26 03:16:15;;;;;;;;;;;10.10;94.30;;;;;;5031559;28;20032;-56
2023/10/26 03:18:41;;;;;;;;;;;10.00;94.20;;;;;;5014860;28;19967;-55
2023/10/26 03:21:08;;;;;;;;;;;10.10;94.20;;;;;;5032383;28;19909;-52
2023/10/26 03:23:36;;;;;;;;;;;10.00;94.20;;;;;;5014659;28;19913;-56
2023/10/26 03:26:04;;;;;;;;;;;10.00;94.10;;;;;;5026891;28;19958;-55
2023/10/26 03:28:31;;;;;;;;;;;10.00;94.10;;;;;;5032485;28;19924;-55
2023/10/26 03:30:56;;;;;;;;;;;10.00;94.10;;;;;;5021686;28;19909;-56
2023/10/26 03:33:23;;;;;;;;;;;9.90;94.10;;;;;;5012775;28;20246;-56
2023/10/26 03:35:49;;;;;;;;;;;9.90;94.00;;;;;;5012785;28;19913;-54
2023/10/26 03:38:19;;;;;;;;;;;9.90;94.10;;;;;;5011777;28;19909;-56
2023/10/26 03:41:00;;;;;;;;;;;9.90;94.10;;;;;;5026365;28;19940;-55
2023/10/26 03:43:27;;;;;;;;;;;9.90;94.10;;;;;;5024115;28;19992;-55
2023/10/26 03:45:52;;;;;;;;;;;9.80;94.00;;;;;;5012556;28;19905;-54
2023/10/26 03:48:20;;;;;;;;;;;9.80;94.00;;;;;;5011836;28;20012;-54
2023/10/26 03:50:47;;;;;;;;;;;9.70;93.90;;;;;;5012209;28;19906;-56
2023/10/26 03:53:15;;;;;;;;;;;9.70;94.00;;;;;;5012336;28;20345;-54
2023/10/26 03:55:42;;;;;;;;;;;9.70;94.00;;;;;;5023405;28;19909;-55
2023/10/26 03:58:10;;;;;;;;;;;9.70;94.10;;;;;;5032203;28;20368;-55
2023/10/26 04:00:37;;;;;;;;;;;9.70;94.10;;;;;;5027069;28;20326;-55
2023/10/26 04:03:03;;;;;;;;;;;9.70;94.00;;;;;;5031508;28;19956;-55
2023/10/26 04:05:30;;;;;;;;;;;9.60;94.10;;;;;;5016097;28;20347;-55
2023/10/26 04:07:56;;;;;;;;;;;9.60;94.10;;;;;;5012475;28;19958;-55
2023/10/26 04:10:24;;;;;;;;;;;9.60;94.10;;;;;;5017989;28;19913;-55
2023/10/26 04:12:51;;;;;;;;;;;9.50;94.10;;;;;;5011369;28;20323;-55
2023/10/26 04:15:21;;;;;;;;;;;9.50;94.10;;;;;;5011891;28;19978;-54
2023/10/26 04:17:50;;;;;;;;;;;9.50;94.20;;;;;;5011991;28;19905;-55
2023/10/26 04:20:15;;;;;;;;;;;9.50;94.20;;;;;;5010679;28;19909;-53
2023/10/26 04:22:41;;;;;;;;;;;9.50;94.20;;;;;;5011881;28;20022;-55
2023/10/26 04:25:07;;;;;;;;;;;9.50;94.30;;;;;;5047043;28;20495;-50
2023/10/26 04:27:35;;;;;;;;;;;9.50;94.30;;;;;;5036722;28;20349;-55
2023/10/26 04:30:01;;;;;;;;;;;9.50;94.30;;;;;;5006869;28;19914;-47
2023/10/26 04:32:28;;;;;;;;;;;9.40;94.30;;;;;;5011553;28;19958;-49
2023/10/26 04:34:54;;;;;;;;;;;9.50;94.40;;;;;;5011847;28;19930;-49
2023/10/26 04:37:19;;;;;;;;;;;9.40;94.40;;;;;;5011612;28;19905;-51
2023/10/26 04:39:46;;;;;;;;;;;9.40;94.40;;;;;;5013357;28;19905;-47
2023/10/26 04:42:12;;;;;;;;;;;9.40;94.50;;;;;;5031310;28;20337;-48
2023/10/26 04:44:39;;;;;;;;;;;9.40;94.50;;;;;;5025518;28;20295;-47
2023/10/26 04:47:06;;;;;;;;;;;9.40;94.50;;;;;;5010821;28;19917;-50
2023/10/26 04:49:33;;;;;;;;;;;9.40;94.50;;;;;;5011617;28;19972;-48
2023/10/26 04:52:02;;;;;;;;;;;9.40;94.50;;;;;;5010539;28;19955;-47
2023/10/26 04:54:29;;;;;;;;;;;9.40;94.50;;;;;;5012913;28;20036;-51
2023/10/26 04:56:56;;;;;;;;;;;9.40;94.50;;;;;;5031033;28;19905;-47
2023/10/26 04:59:22;;;;;;;;;;;9.30;94.60;;;;;;5031047;28;19966;-50
2023/10/26 05:01:48;;;;;;;;;;;9.30;94.60;;;;;;5017787;28;19914;-48
2023/10/26 05:04:15;;;;;;;;;;;9.30;94.60;;;;;;5011715;28;19996;-48
2023/10/26 05:06:43;;;;;;;;;;;9.30;94.70;;;;;;5029640;28;20275;-49
2023/10/26 05:09:12;;;;;;;;;;;9.30;94.80;;;;;;5019196;28;19932;-48
2023/10/26 05:11:38;;;;;;;;;;;9.30;94.80;;;;;;5028269;28;19921;-50
2023/10/26 05:14:06;;;;;;;;;;;9.30;94.80;;;;;;5030897;28;19909;-50
2023/10/26 05:16:33;;;;;;;;;;;9.30;95.00;;;;;;5019640;28;19957;-47
2023/10/26 05:19:00;;;;;;;;;;;9.40;95.00;;;;;;5011171;28;20020;-48
2023/10/26 05:21:26;;;;;;;;;;;9.40;95.10;;;;;;5010973;28;19910;-49
2023/10/26 05:23:52;;;;;;;;;;;9.40;95.10;;;;;;5015245;28;19913;-50
2023/10/26 05:26:18;;;;;;;;;;;9.40;95.10;;;;;;5026958;28;20264;-47
2023/10/26 05:28:51;;;;;;;;;;;9.30;95.20;;;;;;5020546;28;19962;-47
2023/10/26 05:31:17;;;;;;;;;;;9.30;95.20;;;;;;5011004;28;19918;-48
2023/10/26 05:33:48;;;;;;;;;;;9.30;95.20;;;;;;5009767;28;20054;-47
2023/10/26 05:36:15;;;;;;;;;;;9.30;95.20;;;;;;5010457;28;19949;-48
2023/10/26 05:38:41;;;;;;;;;;;9.30;95.30;;;;;;5010342;28;19909;-51
2023/10/26 05:41:08;;;;;;;;;;;9.40;95.40;;;;;;5027588;28;19917;-47
2023/10/26 05:43:33;;;;;;;;;;;9.40;95.40;;;;;;5029666;28;19917;-48
2023/10/26 05:46:04;;;;;;;;;;;9.40;95.40;;;;;;5020453;28;19921;-47
2023/10/26 05:48:33;;;;;;;;;;;9.30;95.40;;;;;;5008489;28;19909;-49
2023/10/26 05:51:00;;;;;;;;;;;9.40;95.50;;;;;;5010123;28;19921;-47
2023/10/26 05:53:27;;;;;;;;;;;9.30;95.40;;;;;;5010457;28;20246;-49
2023/10/26 05:55:57;;;;;;;;;;;9.40;95.50;;;;;;5026831;28;19974;-51
2023/10/26 05:58:24;;;;;;;;;;;9.30;95.50;;;;;;5028981;28;19909;-47
2023/10/26 06:00:50;;;;;;;;;;;9.30;95.50;;;;;;5019528;28;19913;-47
2023/10/26 06:03:17;;;;;;;;;;;9.40;95.50;;;;;;5009948;28;19995;-47
2023/10/26 06:05:44;;;;;;;;;;;9.30;95.50;;;;;;5009514;28;19913;-46
2023/10/26 06:08:20;;;;;;;;;;;9.30;95.50;;;;;;5028600;28;20009;-48
2023/10/26 06:10:46;;;;;;;;;;;9.30;95.60;;;;;;5021244;28;19939;-53
2023/10/26 06:13:14;;;;;;;;;;;9.40;95.70;;;;;;5029957;28;19906;-53
2023/10/26 06:15:41;;;;;;;;;;;9.40;95.70;;;;;;5022169;28;19923;-46
2023/10/26 06:18:09;;;;;;;;;;;9.40;95.70;;;;;;5015504;28;19927;-46
2023/10/26 06:20:36;;;;;;;;;;;9.40;95.60;;;;;;5029552;28;19909;-50
2023/10/26 06:23:03;;;;;;;;;;;9.40;95.70;;;;;;5011020;28;19986;-47
2023/10/26 06:25:38;;;;;;;;;;;9.40;95.70;;;;;;5005322;28;19991;-46
2023/10/26 06:28:15;;;;;;;;;;;9.40;95.70;;;;;;5010226;28;19909;-46
2023/10/26 06:30:41;;;;;;;;;;;9.40;95.80;;;;;;5010052;28;19990;-47
2023/10/26 06:33:10;;;;;;;;;;;9.40;95.80;;;;;;5010128;28;19941;-46
2023/10/26 06:35:39;;;;;;;;;;;9.50;95.80;;;;;;5025300;28;19924;-50
2023/10/26 06:38:06;;;;;;;;;;;9.40;95.70;;;;;;5010257;28;19909;-46
2023/10/26 06:40:33;;;;;;;;;;;9.50;95.80;;;;;;5018703;28;19909;-47
2023/10/26 06:43:00;;;;;;;;;;;9.50;95.80;;;;;;5024523;28;20020;-47
2023/10/26 06:45:27;;;;;;;;;;;9.50;95.80;;;;;;5007753;28;19937;-47
2023/10/26 06:47:54;;;;;;;;;;;9.50;95.80;;;;;;5009758;28;20215;-50
2023/10/26 06:50:23;;;;;;;;;;;9.50;95.80;;;;;;5009952;28;19910;-46
2023/10/26 06:52:50;;;;;;;;;;;9.50;95.70;;;;;;5009663;28;20289;-46
2023/10/26 06:55:16;;;;;;;;;;;9.60;95.80;;;;;;5013889;28;19909;-51
2023/10/26 06:57:42;;;;;;;;;;;9.60;95.70;;;;;;5029348;28;19908;-47
2023/10/26 07:00:11;;;;;;;;;;;9.60;95.70;;;;;;5007451;28;20302;-47
2023/10/26 07:02:38;;;;;;;;;;;9.50;95.70;;;;;;5029231;28;20344;-46
2023/10/26 07:05:03;;;;;;;;;;;9.60;95.80;;;;;;5029531;28;19913;-46
2023/10/26 07:07:31;;;;;;;;;;;9.60;95.70;;;;;;5015670;28;20471;-49
2023/10/26 07:09:57;;;;;;;;;;;9.70;95.70;;;;;;5009818;28;19996;-46
2023/10/26 07:12:24;;;;;;;;;;;9.70;95.70;;;;;;5028724;28;20012;-46
2023/10/26 07:14:59;;;;;;;;;;;9.70;95.70;;;;;;5023784;28;19913;-47
2023/10/26 07:17:26;;;;;;;;;;;9.70;95.60;;;;;;5013836;28;19965;-47
2023/10/26 07:19:54;;;;;;;;;;;9.70;95.60;;;;;;5012860;28;19948;-48
2023/10/26 07:22:21;;;;;;;;;;;9.70;95.60;;;;;;5012688;28;20007;-46
2023/10/26 07:24:50;;;;;;;;;;;9.80;95.60;;;;;;5013258;28;19945;-46
2023/10/26 07:27:16;;;;;;;;;;;9.80;95.60;;;;;;5019213;28;19960;-51
2023/10/26 07:29:44;;;;;;;;;;;9.90;95.60;;;;;;5012861;28;20229;-46
2023/10/26 07:32:11;;;;;;;;;;;9.80;95.50;;;;;;5029826;28;19909;-51
2023/10/26 07:34:37;;;;;;;;;;;9.80;95.50;;;;;;5029810;28;19913;-46
2023/10/26 07:37:04;;;;;;;;;;;9.90;95.60;;;;;;5027450;28;20248;-46
2023/10/26 07:39:37;;;;;;;;;;;9.90;95.50;;;;;;5032263;28;20389;-48
2023/10/26 07:42:07;;;;;;;;;;;9.90;95.50;;;;;;5030989;28;20008;-49
2023/10/26 07:44:33;;;;;;;;;;;9.90;95.50;;;;;;5021040;28;19996;-46
2023/10/26 07:47:00;;;;;;;;;;;9.90;95.50;;;;;;5012519;28;19917;-45
2023/10/26 07:49:26;;;;;;;;;;;9.90;95.50;;;;;;5026576;28;19909;-46
2023/10/26 07:51:53;;;;;;;;;;;9.90;95.50;;;;;;5012564;28;19916;-47
2023/10/26 07:54:20;;;;;;;;;;;9.90;95.40;;;;;;5012788;28;19920;-46
2023/10/26 07:56:45;;;;;;;;;;;9.90;95.50;;;;;;5028194;28;19913;-46
2023/10/26 07:59:12;;;;;;;;;;;9.90;95.40;;;;;;5031619;28;19920;-46
2023/10/26 08:01:38;;;;;;;;;;;10.00;95.50;;;;;;5011964;28;20008;-46
2023/10/26 08:04:05;;;;;;;;;;;10.10;95.50;;;;;;5012302;28;20005;-46
2023/10/26 08:06:32;;;;;;;;;;;10.10;95.50;;;;;;5012195;28;19916;-47
2023/10/26 08:08:58;;;;;;;;;;;10.20;95.50;;;;;;5010810;28;19959;-51
2023/10/26 08:11:25;;;;;;;;;;;10.20;95.40;;;;;;5022701;28;19960;-46
2023/10/26 08:13:52;;;;;;;;;;;10.30;95.40;;;;;;5030027;28;20357;-47
2023/10/26 08:16:19;;;;;;;;;;;10.30;95.40;;;;;;5031260;28;19906;-49
2023/10/26 08:18:46;;;;;;;;;;;10.40;95.40;;;;;;5010941;28;19909;-49
2023/10/26 08:21:13;;;;;;;;;;;10.50;95.40;;;;;;5010571;28;19949;-47
2023/10/26 08:23:39;;;;;;;;;;;10.60;95.30;;;;;;5011425;28;19913;-48
2023/10/26 08:26:06;;;;;;;;;;;10.60;95.30;;;;;;5017357;28;19947;-49
2023/10/26 08:28:35;;;;;;;;;;;10.70;95.20;;;;;;5029881;28;20346;-48
2023/10/26 08:31:01;;;;;;;;;;;10.80;95.20;;;;;;5031223;28;20355;-47
2023/10/26 08:33:28;;;;;;;;;;;10.90;95.10;;;;;;5017432;28;19917;-47
2023/10/26 08:35:55;;;;;;;;;;;11.00;95.10;;;;;;5011373;28;19921;-53
2023/10/26 08:38:26;;;;;;;;;;;11.10;94.90;;;;;;5016150;28;19963;-47
2023/10/26 08:40:53;;;;;;;;;;;11.20;94.80;;;;;;5030606;28;19905;-54
2023/10/26 08:43:21;;;;;;;;;;;11.40;94.60;;;;;;5013664;28;20253;-48
2023/10/26 08:45:48;;;;;;;;;;;11.50;94.40;;;;;;5011075;28;20317;-53
2023/10/26 08:48:18;;;;;;;;;;;11.50;94.20;;;;;;5011257;28;19921;-51
2023/10/26 08:50:45;;;;;;;;;;;11.60;93.70;;;;;;5010512;28;20379;-52
2023/10/26 08:53:22;;;;;;;;;;;11.60;93.50;;;;;;5011377;28;19909;-50
2023/10/26 08:55:51;;;;;;;;;;;11.70;93.20;;;;;;5015288;28;19920;-56
2023/10/26 08:58:19;;;;;;;;;;;11.70;92.90;;;;;;5025731;28;20026;-55
2023/10/26 09:00:45;;;;;;;;;;;11.60;92.30;;;;;;5028009;28;19909;-56
2023/10/26 09:03:12;;;;;;;;;;;11.50;92.20;;;;;;5030866;28;20341;-56
2023/10/26 09:05:57;;;;;;;;;;;11.50;92.40;;;;;;5018891;28;19909;-49
2023/10/26 09:08:23;;;;;;;;;;;11.50;92.40;;;;;;5011084;28;19913;-56
2023/10/26 09:10:53;;;;;;;;;;;11.50;92.60;;;;;;5013044;28;19921;-53
2023/10/26 09:13:27;;;;;;;;;;;11.50;92.70;;;;;;5029989;28;20346;-54
2023/10/26 09:15:54;;;;;;;;;;;11.50;92.80;;;;;;5022950;28;19913;-55
2023/10/26 09:18:36;;;;;;;;;;;11.50;92.90;;;;;;5029631;28;20365;-57
2023/10/26 09:21:10;;;;;;;;;;;11.60;93.10;;;;;;5014537;28;20338;-55
2023/10/26 09:23:37;;;;;;;;;;;11.60;93.10;;;;;;5027608;28;19912;-57
2023/10/26 09:26:07;;;;;;;;;;;11.60;93.10;;;;;;5027692;28;20245;-51
2023/10/26 09:28:54;;;;;;;;;;;11.60;93.10;;;;;;5029706;28;20378;-57
2023/10/26 09:31:22;;;;;;;;;;;11.70;93.00;;;;;;5030753;28;19908;-56
2023/10/26 09:33:49;;;;;;;;;;;11.70;92.90;;;;;;5012263;28;19978;-57
2023/10/26 09:36:23;;;;;;;;;;;11.70;92.80;;;;;;5009614;28;19924;-57
2023/10/26 09:38:59;;;;;;;;;;;11.80;92.70;;;;;;5012564;28;20331;-56
2023/10/26 09:41:37;;;;;;;;;;;11.90;92.70;;;;;;5028894;28;19909;-54
2023/10/26 09:44:08;;;;;;;;;;;11.90;92.40;;;;;;5030500;28;19920;-57
2023/10/26 09:46:34;;;;;;;;;;;12.00;92.00;;;;;;5007591;28;19919;-57
2023/10/26 09:49:01;;;;;;;;;;;12.00;91.80;;;;;;5010176;28;19958;-56
2023/10/26 09:51:28;;;;;;;;;;;12.10;91.80;;;;;;5009208;28;19916;-57
2023/10/26 09:53:54;;;;;;;;;;;12.10;91.60;;;;;;5010253;28;19910;-56
2023/10/26 09:56:23;;;;;;;;;;;12.10;91.50;;;;;;5014954;28;19909;-52
2023/10/26 09:58:49;;;;;;;;;;;12.20;91.80;;;;;;5014848;28;20322;-54
2023/10/26 10:01:34;;;;;;;;;;;12.20;91.70;;;;;;5010209;28;19988;-54
2023/10/26 10:04:02;;;;;;;;;;;12.30;91.70;;;;;;5009898;28;19939;-54
2023/10/26 10:06:50;;;;;;;;;;;12.40;91.30;;;;;;5010377;28;19910;-57
2023/10/26 10:09:21;;;;;;;;;;;12.40;91.00;;;;;;5009927;28;19913;-52
2023/10/26 10:12:05;;;;;;;;;;;12.40;90.70;;;;;;5019163;28;19925;-57
2023/10/26 10:14:58;;;;;;;;;;;12.40;90.80;;;;;;5022251;28;19917;-55
2023/10/26 10:17:42;;;;;;;;;;;12.40;90.60;;;;;;5009033;28;19913;-55
2023/10/26 10:20:22;;;;;;;;;;;12.50;90.70;;;;;;5010523;28;19913;-56
2023/10/26 10:22:50;;;;;;;;;;;12.60;90.20;;;;;;5010156;28;19910;-58
2023/10/26 10:25:17;;;;;;;;;;;12.70;89.70;;;;;;5009307;28;19909;-55
2023/10/26 10:27:52;;;;;;;;;;;12.80;89.60;;;;;;5029771;28;19912;-53
2023/10/26 10:30:21;;;;;;;;;;;12.90;89.80;;;;;;5022582;28;19917;-54
2023/10/26 10:33:06;;;;;;;;;;;12.90;89.40;;;;;;5010493;28;19996;-54
2023/10/26 10:35:50;;;;;;;;;;;12.90;89.40;;;;;;5023611;28;19909;-57
2023/10/26 10:38:34;;;;;;;;;;;12.90;89.10;;;;;;5029569;28;20381;-57
2023/10/26 10:41:02;;;;;;;;;;;13.00;88.90;;;;;;5018920;28;20273;-56
2023/10/26 10:43:31;;;;;;;;;;;13.00;89.00;;;;;;5029834;28;19913;-55
2023/10/26 10:46:08;;;;;;;;;;;13.00;88.60;;;;;;5029793;28;20234;-56
2023/10/26 10:48:36;;;;;;;;;;;13.10;88.80;;;;;;5016713;28;19918;-56
2023/10/26 10:51:01;;;;;;;;;;;13.20;88.50;;;;;;5013517;28;19905;-57
2023/10/26 10:53:29;;;;;;;;;;;13.10;88.40;;;;;;5013256;28;19909;-57
2023/10/26 10:55:57;;;;;;;;;;;13.20;88.20;;;;;;5020293;28;19909;-57
2023/10/26 10:58:35;;;;;;;;;;;13.10;87.90;;;;;;5033135;28;20333;-55
2023/10/26 11:01:01;;;;;;;;;;;13.00;87.80;;;;;;5031972;28;20394;-57
2023/10/26 11:03:28;;;;;;;;;;;12.90;87.90;;;;;;5014095;28;19913;-56
2023/10/26 11:05:54;;;;;;;;;;;12.90;88.20;;;;;;5013164;28;19905;-58
2023/10/26 11:08:21;;;;;;;;;;;12.90;88.50;;;;;;5014552;28;19935;-55
2023/10/26 11:10:51;;;;;;;;;;;12.80;88.30;;;;;;5016653;28;19920;-53
2023/10/26 11:13:21;;;;;;;;;;;12.70;88.30;;;;;;5013221;28;19919;-56
2023/10/26 11:15:49;;;;;;;;;;;12.60;88.80;;;;;;5013058;28;19962;-55
2023/10/26 11:18:16;;;;;;;;;;;12.50;88.90;;;;;;5012984;28;19954;-53
2023/10/26 11:20:42;;;;;;;;;;;12.60;89.50;;;;;;5012920;28;19905;-53
2023/10/26 11:23:11;;;;;;;;;;;12.80;89.60;;;;;;5013096;28;20349;-56
2023/10/26 11:25:37;;;;;;;;;;;12.70;89.00;;;;;;5006375;28;19964;-55
2023/10/26 11:28:05;;;;;;;;;;;12.80;88.90;;;;;;5013067;28;20245;-54
2023/10/26 11:30:55;;;;;;;;;;;12.80;88.70;;;;;;5012641;28;20300;-56
2023/10/26 11:33:39;;;;;;;;;;;12.90;89.20;;;;;;5012670;28;20004;-54
2023/10/26 11:36:10;;;;;;;;;;;12.70;88.80;;;;;;5012374;28;19970;-56
2023/10/26 11:38:47;;;;;;;;;;;12.60;88.90;;;;;;5011735;28;19963;-56
2023/10/26 11:41:23;;;;;;;;;;;12.60;89.20;;;;;;5011990;28;19909;-54
2023/10/26 11:43:51;;;;;;;;;;;12.60;89.20;;;;;;5011425;28;20327;-55
2023/10/26 11:46:37;;;;;;;;;;;12.50;89.20;;;;;;5012604;28;19905;-58
2023/10/26 11:49:04;;;;;;;;;;;12.50;89.40;;;;;;5012292;28;19955;-56
2023/10/26 11:51:31;;;;;;;;;;;12.40;89.30;;;;;;5012847;28;19905;-52
2023/10/26 11:54:09;;;;;;;;;;;12.40;89.50;;;;;;5016305;28;19983;-56
2023/10/26 11:56:39;;;;;;;;;;;12.40;89.60;;;;;;5021805;28;20453;-56
2023/10/26 11:59:05;;;;;;;;;;;12.30;89.50;;;;;;5011884;28;20321;-57
2023/10/26 12:01:31;;;;;;;;;;;12.40;90.10;;;;;;5012051;28;20416;-56
2023/10/26 12:03:58;;;;;;;;;;;12.40;90.10;;;;;;5012436;28;19910;-54
2023/10/26 12:06:28;;;;;;;;;;;12.50;90.00;;;;;;5012275;28;19916;-56
2023/10/26 12:08:55;;;;;;;;;;;12.50;89.80;;;;;;5017780;28;19971;-57
2023/10/26 12:11:30;;;;;;;;;;;12.40;90.00;;;;;;5026972;28;19925;-56
2023/10/26 12:13:57;;;;;;;;;;;12.50;89.90;;;;;;5025684;28;20299;-56
2023/10/26 12:16:27;;;;;;;;;;;12.60;89.80;;;;;;5013690;28;19917;-56
2023/10/26 12:18:52;;;;;;;;;;;12.70;89.30;;;;;;5030869;28;19941;-56
2023/10/26 12:21:20;;;;;;;;;;;12.90;89.20;;;;;;5031523;28;20513;-56
2023/10/26 12:23:46;;;;;;;;;;;13.00;89.00;;;;;;5027584;28;19913;-55
2023/10/26 12:26:14;;;;;;;;;;;13.10;88.30;;;;;;5031172;28;19905;-56
2023/10/26 12:28:39;;;;;;;;;;;13.20;88.00;;;;;;5017544;28;19914;-56
2023/10/26 12:31:17;;;;;;;;;;;13.30;87.80;;;;;;5011717;28;19984;-54
2023/10/26 12:33:44;;;;;;;;;;;13.40;87.50;;;;;;5011093;28;20334;-55
2023/10/26 12:36:11;;;;;;;;;;;13.30;86.80;;;;;;5010775;28;20353;-56
2023/10/26 12:38:38;;;;;;;;;;;13.10;86.80;;;;;;5014949;28;19923;-56
2023/10/26 12:41:06;;;;;;;;;;;13.00;87.10;;;;;;5031124;28;19977;-57
2023/10/26 12:43:31;;;;;;;;;;;12.90;87.60;;;;;;5026342;28;20391;-55
2023/10/26 12:46:01;;;;;;;;;;;12.80;87.60;;;;;;5010744;28;19905;-56
2023/10/26 12:48:27;;;;;;;;;;;12.70;87.90;;;;;;5011108;28;19937;-57
2023/10/26 12:50:52;;;;;;;;;;;12.60;88.20;;;;;;5011334;28;20426;-56
2023/10/26 12:53:18;;;;;;;;;;;12.50;88.60;;;;;;5010698;28;20242;-56
2023/10/26 12:55:43;;;;;;;;;;;12.50;88.80;;;;;;5030854;28;19920;-55
2023/10/26 12:58:09;;;;;;;;;;;12.40;88.90;;;;;;5024675;28;20031;-54
2023/10/26 13:00:35;;;;;;;;;;;12.40;89.00;;;;;;5011487;28;19921;-56
2023/10/26 13:03:00;;;;;;;;;;;12.40;89.20;;;;;;5011263;28;19913;-55
2023/10/26 13:05:29;;;;;;;;;;;12.50;89.40;;;;;;5012038;28;20378;-56
2023/10/26 13:07:55;;;;;;;;;;;12.50;89.70;;;;;;5030268;28;19988;-62
2023/10/26 13:10:20;;;;;;;;;;;12.50;89.80;;;;;;5029439;28;20453;-55
2023/10/26 13:12:47;;;;;;;;;;;12.50;89.70;;;;;;5029981;28;19923;-56
2023/10/26 13:15:14;;;;;;;;;;;12.50;89.60;;;;;;5030023;28;19978;-55
2023/10/26 13:17:42;;;;;;;;;;;12.50;89.40;;;;;;5030613;28;19913;-55
2023/10/26 13:20:08;;;;;;;;;;;12.50;89.50;;;;;;5013091;28;19909;-54
2023/10/26 13:22:35;;;;;;;;;;;12.40;89.60;;;;;;5011186;28;19913;-56
2023/10/26 13:25:03;;;;;;;;;;;12.40;89.30;;;;;;5014419;28;19951;-56
2023/10/26 13:27:29;;;;;;;;;;;12.40;89.50;;;;;;5021648;28;19962;-56
2023/10/26 13:29:56;;;;;;;;;;;12.40;89.60;;;;;;5030396;28;19909;-54
2023/10/26 13:32:22;;;;;;;;;;;12.50;89.20;;;;;;5030373;28;19916;-56
2023/10/26 13:34:47;;;;;;;;;;;12.40;88.70;;;;;;5027037;28;19909;-55
2023/10/26 13:37:15;;;;;;;;;;;12.40;88.50;;;;;;5030731;28;19905;-56
2023/10/26 13:39:40;;;;;;;;;;;12.40;88.00;;;;;;5016616;28;20339;-56
2023/10/26 13:42:06;;;;;;;;;;;12.40;88.10;;;;;;5030146;28;19909;-56
2023/10/26 13:44:32;;;;;;;;;;;12.40;87.90;;;;;;5015426;28;19932;-51
2023/10/26 13:46:58;;;;;;;;;;;12.50;87.90;;;;;;5010323;28;19905;-51
2023/10/26 13:49:26;;;;;;;;;;;12.40;87.60;;;;;;5009611;28;19910;-50
2023/10/26 13:51:54;;;;;;;;;;;12.40;87.70;;;;;;5010644;28;19910;-52
2023/10/26 13:54:21;;;;;;;;;;;12.40;88.00;;;;;;5010561;28;19913;-52
2023/10/26 13:56:47;;;;;;;;;;;12.40;88.30;;;;;;5030284;28;19988;-50
2023/10/26 13:59:13;;;;;;;;;;;12.40;88.50;;;;;;5020435;28;20378;-49
2023/10/26 14:01:40;;;;;;;;;;;12.40;88.40;;;;;;5010623;28;19910;-49
2023/10/26 14:04:07;;;;;;;;;;;12.40;88.40;;;;;;5010309;28;19917;-49
2023/10/26 14:06:34;;;;;;;;;;;12.40;88.10;;;;;;5009794;28;19906;-50
2023/10/26 14:08:59;;;;;;;;;;;12.40;88.30;;;;;;5010059;28;20334;-51
2023/10/26 14:11:26;;;;;;;;;;;12.40;88.00;;;;;;5028309;28;19921;-51
2023/10/26 14:13:54;;;;;;;;;;;12.40;88.10;;;;;;5026218;28;20004;-49
2023/10/26 14:16:22;;;;;;;;;;;12.40;88.30;;;;;;5030398;28;19909;-48
2023/10/26 14:18:49;;;;;;;;;;;12.30;88.20;;;;;;5030153;28;19905;-49
2023/10/26 14:21:16;;;;;;;;;;;12.30;88.20;;;;;;5018582;28;19954;-49
2023/10/26 14:23:43;;;;;;;;;;;12.30;88.20;;;;;;5012594;28;20000;-49
2023/10/26 14:26:08;;;;;;;;;;;12.40;88.20;;;;;;5028523;28;19917;-48
2023/10/26 14:28:37;;;;;;;;;;;12.30;88.50;;;;;;5033469;28;20218;-50
2023/10/26 14:31:03;;;;;;;;;;;12.30;88.30;;;;;;5023271;28;19928;-49